createdAt,value
2018-04-28T00:00:44.717Z,0.00
2018-04-28T00:01:44.737Z,0.00
2018-04-28T00:02:44.755Z,0.00
2018-04-28T00:03:44.776Z,0.00
2018-04-28T00:04:44.795Z,0.00
2018-04-28T00:05:44.816Z,0.00
2018-04-28T00:06:44.837Z,0.00
2018-04-28T00:07:44.859Z,0.00
2018-04-28T00:08:44.877Z,0.00
2018-04-28T00:09:44.899Z,0.00
2018-04-28T00:10:44.920Z,0.00
2018-04-28T00:11:44.938Z,0.00
2018-04-28T00:12:44.960Z,0.00
2018-04-28T00:13:44.982Z,0.00
2018-04-28T00:14:45.003Z,0.00
2018-04-28T00:15:45.028Z,0.00
2018-04-28T00:16:46.869Z,0.00
2018-04-28T00:17:45.067Z,0.00
2018-04-28T00:18:45.084Z,0.00
2018-04-28T00:19:45.102Z,0.00
2018-04-28T00:20:45.124Z,0.00
2018-04-28T00:21:45.147Z,0.00
2018-04-28T00:22:45.164Z,0.00
2018-04-28T00:23:45.187Z,0.00
2018-04-28T00:24:45.215Z,0.00
2018-04-28T00:25:45.225Z,0.00
2018-04-28T00:26:45.264Z,0.00
2018-04-28T00:27:45.274Z,0.00
2018-04-28T00:28:45.286Z,0.00
2018-04-28T00:29:45.310Z,0.00
2018-04-28T00:30:45.329Z,0.00
2018-04-28T00:31:45.349Z,0.00
2018-04-28T00:32:45.368Z,0.00
2018-04-28T00:33:45.389Z,0.00
2018-04-28T00:34:45.411Z,0.00
2018-04-28T00:35:45.432Z,0.00
2018-04-28T00:36:45.447Z,0.00
2018-04-28T00:37:45.469Z,0.00
2018-04-28T00:38:45.492Z,0.00
2018-04-28T00:39:45.509Z,0.00
2018-04-28T00:40:45.534Z,0.00
2018-04-28T00:41:45.598Z,0.00
2018-04-28T00:42:45.572Z,0.00
2018-04-28T00:43:46.376Z,0.00
2018-04-28T00:44:45.618Z,0.00
2018-04-28T00:45:45.634Z,0.00
2018-04-28T00:46:45.656Z,0.00
2018-04-28T00:47:45.678Z,0.00
2018-04-28T00:48:45.706Z,0.00
2018-04-28T00:49:45.710Z,0.00
2018-04-28T00:50:45.734Z,0.00
2018-04-28T00:51:45.753Z,0.00
2018-04-28T00:52:45.781Z,0.00
2018-04-28T00:53:45.792Z,0.00
2018-04-28T00:54:45.819Z,0.00
2018-04-28T00:55:45.837Z,0.00
2018-04-28T00:56:45.853Z,0.00
2018-04-28T00:57:45.876Z,0.00
2018-04-28T00:58:45.902Z,0.00
2018-04-28T00:59:45.916Z,0.00
2018-04-28T01:00:45.941Z,0.00
2018-04-28T01:01:45.957Z,0.00
2018-04-28T01:02:45.976Z,0.00
2018-04-28T01:03:46.000Z,0.00
2018-04-28T01:04:46.017Z,0.00
2018-04-28T01:05:46.050Z,0.00
2018-04-28T01:06:46.060Z,0.00
2018-04-28T01:07:46.082Z,0.00
2018-04-28T01:08:46.098Z,0.00
2018-04-28T01:09:46.120Z,0.00
2018-04-28T01:10:46.141Z,0.00
2018-04-28T01:11:46.160Z,0.00
2018-04-28T01:12:46.183Z,0.00
2018-04-28T01:13:46.201Z,0.00
2018-04-28T01:14:46.219Z,0.00
2018-04-28T01:15:46.240Z,0.00
2018-04-28T01:16:46.267Z,0.00
2018-04-28T01:17:46.286Z,0.00
2018-04-28T01:18:46.300Z,0.00
2018-04-28T01:19:46.322Z,0.00
2018-04-28T01:20:46.340Z,0.00
2018-04-28T01:21:46.361Z,0.00
2018-04-28T01:22:46.385Z,0.00
2018-04-28T01:23:46.406Z,0.00
2018-04-28T01:24:46.445Z,0.00
2018-04-28T01:25:46.444Z,0.00
2018-04-28T01:26:46.460Z,0.00
2018-04-28T01:27:46.481Z,0.00
2018-04-28T01:28:46.500Z,0.00
2018-04-28T01:29:46.522Z,0.00
2018-04-28T01:30:46.541Z,0.00
2018-04-28T01:31:46.563Z,0.00
2018-04-28T01:32:46.583Z,0.00
2018-04-28T01:33:46.608Z,0.00
2018-04-28T01:34:46.623Z,0.00
2018-04-28T01:35:46.652Z,0.00
2018-04-28T01:36:46.660Z,0.00
2018-04-28T01:37:46.679Z,0.00
2018-04-28T01:38:46.703Z,0.00
2018-04-28T01:39:46.725Z,0.00
2018-04-28T01:40:46.741Z,0.00
2018-04-28T01:41:46.764Z,0.00
2018-04-28T01:42:46.846Z,0.00
2018-04-28T01:43:46.804Z,0.00
2018-04-28T01:44:46.819Z,0.00
2018-04-28T01:45:46.841Z,0.00
2018-04-28T01:46:46.860Z,0.00
2018-04-28T01:47:46.880Z,0.00
2018-04-28T03:48:22.357Z,0.00
2018-04-28T03:49:22.338Z,4.00
2018-04-28T03:51:15.251Z,4.00
2018-04-28T03:52:15.255Z,4.00
2018-04-28T03:54:08.200Z,4.00
2018-04-28T03:55:08.188Z,4.00
2018-04-28T03:57:01.107Z,8.00
2018-04-28T03:58:01.119Z,8.00
2018-04-28T03:59:54.064Z,12.00
2018-04-28T04:00:54.049Z,12.00
2018-04-28T04:02:46.969Z,16.00
2018-04-28T04:03:46.981Z,20.00
2018-04-28T04:05:39.925Z,24.00
2018-04-28T04:06:39.963Z,28.00
2018-04-28T04:08:32.879Z,36.00
2018-04-28T04:09:32.863Z,36.00
2018-04-28T04:11:25.784Z,40.00
2018-04-28T04:12:25.791Z,48.00
2018-04-28T04:14:18.748Z,48.00
2018-04-28T04:15:18.730Z,52.00
2018-04-28T04:17:11.660Z,60.00
2018-04-28T04:18:11.738Z,64.00
2018-04-28T04:20:04.619Z,72.00
2018-04-28T04:21:04.647Z,76.00
2018-04-28T04:22:57.533Z,76.00
2018-04-28T04:23:57.567Z,76.00
2018-04-28T04:25:50.490Z,92.00
2018-04-28T04:26:50.490Z,100.00
2018-04-28T04:28:43.411Z,120.00
2018-04-28T04:29:43.424Z,128.00
2018-04-28T04:31:36.390Z,144.00
2018-04-28T04:32:36.366Z,160.00
2018-04-28T04:34:29.305Z,180.00
2018-04-28T04:35:29.317Z,200.00
2018-04-28T04:37:22.261Z,220.00
2018-04-28T04:38:22.258Z,232.00
2018-04-28T04:40:15.181Z,232.00
2018-04-28T04:41:15.193Z,240.00
2018-04-28T04:43:08.149Z,240.00
2018-04-28T04:44:08.136Z,244.00
2018-04-28T04:46:01.095Z,256.00
2018-04-28T04:47:01.084Z,260.00
2018-04-28T04:48:54.013Z,288.00
2018-04-28T04:49:54.033Z,304.00
2018-04-28T04:51:46.976Z,344.00
2018-04-28T04:52:46.965Z,360.00
2018-04-28T04:54:39.899Z,424.00
2018-04-28T04:55:39.907Z,460.00
2018-04-28T04:57:32.856Z,516.00
2018-04-28T04:58:32.852Z,540.00
2018-04-28T05:00:25.780Z,616.00
2018-04-28T05:01:25.795Z,624.00
2018-04-28T05:03:18.736Z,672.00
2018-04-28T05:04:18.731Z,712.00
2018-04-28T05:06:11.663Z,652.00
2018-04-28T05:07:11.674Z,620.00
2018-04-28T05:09:04.624Z,632.00
2018-04-28T05:10:04.622Z,620.00
2018-04-28T05:11:57.555Z,644.00
2018-04-28T05:12:57.576Z,644.00
2018-04-28T05:14:50.518Z,624.00
2018-04-28T05:15:50.510Z,652.00
2018-04-28T05:17:43.458Z,716.00
2018-04-28T05:18:43.461Z,804.00
2018-04-28T05:20:36.416Z,892.00
2018-04-28T05:21:36.410Z,1008.00
2018-04-28T05:23:29.370Z,1224.00
2018-04-28T05:24:29.344Z,1276.00
2018-04-28T05:26:22.272Z,1312.00
2018-04-28T05:27:22.291Z,1260.00
2018-04-28T05:29:15.249Z,1156.00
2018-04-28T05:30:15.231Z,1092.00
2018-04-28T05:32:08.175Z,1028.00
2018-04-28T05:33:08.179Z,1020.00
2018-04-28T05:35:01.137Z,1044.00
2018-04-28T05:36:01.143Z,1056.00
2018-04-28T05:37:54.054Z,1080.00
2018-04-28T05:38:54.082Z,1104.00
2018-04-28T05:40:47.026Z,1168.00
2018-04-28T05:41:47.015Z,1184.00
2018-04-28T05:43:39.946Z,1320.00
2018-04-28T05:44:39.967Z,1364.00
2018-04-28T05:46:32.925Z,1504.00
2018-04-28T05:47:32.917Z,1484.00
2018-04-28T05:49:25.846Z,1404.00
2018-04-28T05:50:25.863Z,1432.00
2018-04-28T05:52:18.814Z,1456.00
2018-04-28T05:53:18.807Z,1496.00
2018-04-28T05:55:11.738Z,1552.00
2018-04-28T05:56:11.755Z,1564.00
2018-04-28T05:58:04.699Z,1508.00
2018-04-28T05:59:04.701Z,1576.00
2018-04-28T06:00:57.627Z,1536.00
2018-04-28T06:01:57.639Z,1464.00
2018-04-28T06:03:50.593Z,1548.00
2018-04-28T06:04:50.585Z,1580.00
2018-04-28T06:06:43.546Z,1688.00
2018-04-28T06:07:43.539Z,1712.00
2018-04-28T06:09:36.469Z,1780.00
2018-04-28T06:10:36.486Z,1852.00
2018-04-28T06:12:29.437Z,2016.00
2018-04-28T06:13:29.427Z,2108.00
2018-04-28T06:15:22.360Z,2180.00
2018-04-28T06:16:22.380Z,2136.00
2018-04-28T06:18:15.329Z,2352.00
2018-04-28T06:19:15.324Z,2172.00
2018-04-28T06:21:08.265Z,1836.00
2018-04-28T06:22:08.281Z,1900.00
2018-04-28T06:24:01.233Z,2016.00
2018-04-28T06:25:01.231Z,2040.00
2018-04-28T06:26:54.161Z,2116.00
2018-04-28T06:27:54.176Z,2156.00
2018-04-28T06:29:47.119Z,2188.00
2018-04-28T06:30:47.115Z,2148.00
2018-04-28T06:32:40.067Z,2244.00
2018-04-28T06:33:40.063Z,2176.00
2018-04-28T06:35:32.996Z,2056.00
2018-04-28T06:36:33.022Z,2016.00
2018-04-28T06:38:25.966Z,1944.00
2018-04-28T06:39:25.958Z,1876.00
2018-04-28T06:41:18.923Z,1832.00
2018-04-28T06:42:18.905Z,1788.00
2018-04-28T06:44:11.860Z,1768.00
2018-04-28T06:45:11.849Z,1760.00
2018-04-28T06:47:04.787Z,1668.00
2018-04-28T06:48:04.795Z,1644.00
2018-04-28T06:49:57.772Z,1692.00
2018-04-28T06:50:57.751Z,1792.00
2018-04-28T06:52:50.683Z,1852.00
2018-04-28T06:53:50.707Z,1856.00
2018-04-28T06:55:43.663Z,1936.00
2018-04-28T06:56:43.651Z,1948.00
2018-04-28T06:58:36.604Z,1980.00
2018-04-28T06:59:36.603Z,1976.00
2018-04-28T07:01:29.565Z,2024.00
2018-04-28T07:02:29.554Z,2120.00
2018-04-28T07:04:22.509Z,2228.00
2018-04-28T07:05:22.501Z,2344.00
2018-04-28T07:07:15.440Z,2748.00
2018-04-28T07:08:15.452Z,3172.00
2018-04-28T07:10:08.399Z,3568.00
2018-04-28T07:11:08.402Z,3676.00
2018-04-28T07:13:01.342Z,3804.00
2018-04-28T07:14:01.358Z,3796.00
2018-04-28T07:15:54.315Z,3912.00
2018-04-28T07:16:54.365Z,4236.00
2018-04-28T07:18:47.226Z,4716.00
2018-04-28T07:19:47.241Z,4712.00
2018-04-28T07:21:40.189Z,4512.00
2018-04-28T07:22:40.185Z,4492.00
2018-04-28T07:24:33.142Z,4284.00
2018-04-28T07:25:33.135Z,3980.00
2018-04-28T07:27:26.074Z,3688.00
2018-04-28T07:28:26.088Z,3528.00
2018-04-28T07:30:19.046Z,3464.00
2018-04-28T07:31:19.036Z,3308.00
2018-04-28T07:33:11.974Z,3212.00
2018-04-28T07:34:11.984Z,3412.00
2018-04-28T07:36:04.940Z,3652.00
2018-04-28T07:37:04.930Z,3744.00
2018-04-28T07:38:57.864Z,3884.00
2018-04-28T07:39:57.915Z,4076.00
2018-04-28T07:41:50.837Z,4652.00
2018-04-28T07:42:50.832Z,4696.00
2018-04-28T07:44:43.796Z,4500.00
2018-04-28T07:45:43.779Z,4648.00
2018-04-28T07:47:36.734Z,4812.00
2018-04-28T07:48:36.738Z,4972.00
2018-04-28T07:50:29.692Z,4784.00
2018-04-28T07:51:29.684Z,4472.00
2018-04-28T07:53:22.617Z,4540.00
2018-04-28T07:54:22.632Z,4684.00
2018-04-28T07:56:15.602Z,4664.00
2018-04-28T07:57:15.593Z,4876.00
2018-04-28T07:59:08.526Z,5580.00
2018-04-28T08:00:08.539Z,6072.00
2018-04-28T08:02:01.514Z,6752.00
2018-04-28T08:03:01.493Z,6912.00
2018-04-28T08:04:54.452Z,6984.00
2018-04-28T08:05:54.449Z,6976.00
2018-04-28T08:07:47.383Z,6704.00
2018-04-28T08:08:47.405Z,6656.00
2018-04-28T08:10:40.348Z,6392.00
2018-04-28T08:11:40.342Z,6236.00
2018-04-28T08:13:33.280Z,5768.00
2018-04-28T08:14:33.298Z,5360.00
2018-04-28T08:16:26.254Z,5160.00
2018-04-28T08:17:26.242Z,5000.00
2018-04-28T08:19:19.182Z,5092.00
2018-04-28T08:20:19.203Z,5272.00
2018-04-28T08:22:12.148Z,5460.00
2018-04-28T08:23:12.151Z,5504.00
2018-04-28T08:25:05.129Z,5788.00
2018-04-28T08:26:05.107Z,5872.00
2018-04-28T08:27:58.050Z,6152.00
2018-04-28T08:28:58.056Z,6392.00
2018-04-28T08:30:51.008Z,7500.00
2018-04-28T08:31:51.010Z,7520.00
2018-04-28T08:32:51.035Z,7620.00
2018-04-28T08:33:51.057Z,7880.00
2018-04-28T08:34:51.080Z,7592.00
2018-04-28T08:35:51.105Z,6756.00
2018-04-28T08:36:51.193Z,6992.00
2018-04-28T08:37:51.148Z,6584.00
2018-04-28T08:38:51.183Z,6104.00
2018-04-28T08:39:51.206Z,6664.00
2018-04-28T08:40:51.220Z,6080.00
2018-04-28T08:41:51.243Z,6052.00
2018-04-28T08:42:51.275Z,6532.00
2018-04-28T08:43:51.293Z,7068.00
2018-04-28T08:44:51.315Z,7528.00
2018-04-28T08:45:51.349Z,7872.00
2018-04-28T08:46:51.365Z,7736.00
2018-04-28T08:47:51.389Z,7800.00
2018-04-28T08:48:51.413Z,7936.00
2018-04-28T08:49:51.437Z,8164.00
2018-04-28T08:50:51.464Z,8332.00
2018-04-28T08:51:51.481Z,7940.00
2018-04-28T08:52:51.507Z,7952.00
2018-04-28T08:53:51.593Z,7784.00
2018-04-28T08:54:51.557Z,7744.00
2018-04-28T08:55:51.579Z,7732.00
2018-04-28T08:56:51.606Z,8008.00
2018-04-28T08:57:51.632Z,8124.00
2018-04-28T08:58:51.655Z,8528.00
2018-04-28T08:59:51.686Z,8460.00
2018-04-28T09:00:51.702Z,8584.00
2018-04-28T09:01:51.727Z,8000.00
2018-04-28T09:02:51.754Z,7700.00
2018-04-28T09:03:51.778Z,7592.00
2018-04-28T09:04:51.804Z,7676.00
2018-04-28T09:05:51.825Z,7760.00
2018-04-28T09:06:51.857Z,7232.00
2018-04-28T09:07:51.874Z,6732.00
2018-04-28T09:08:51.903Z,6712.00
2018-04-28T09:09:51.930Z,6860.00
2018-04-28T09:10:51.949Z,7284.00
2018-04-28T09:11:51.974Z,7188.00
2018-04-28T09:12:52.000Z,7376.00
2018-04-28T09:13:52.024Z,7360.00
2018-04-28T09:14:52.049Z,7308.00
2018-04-28T09:15:52.075Z,7128.00
2018-04-28T09:16:52.107Z,6764.00
2018-04-28T09:17:52.123Z,6500.00
2018-04-28T09:18:52.153Z,6364.00
2018-04-28T09:19:52.175Z,6144.00
2018-04-28T09:20:52.198Z,5948.00
2018-04-28T09:21:52.223Z,5912.00
2018-04-28T09:22:52.249Z,6032.00
2018-04-28T09:23:52.274Z,6192.00
2018-04-28T09:24:52.319Z,5616.00
2018-04-28T09:25:52.325Z,5692.00
2018-04-28T09:26:52.349Z,5772.00
2018-04-28T09:27:52.373Z,5892.00
2018-04-28T09:28:52.397Z,6256.00
2018-04-28T09:29:52.436Z,5980.00
2018-04-28T09:30:52.448Z,5948.00
2018-04-28T09:31:52.475Z,5888.00
2018-04-28T09:32:52.495Z,6128.00
2018-04-28T09:33:52.520Z,6232.00
2018-04-28T09:34:52.553Z,6460.00
2018-04-28T09:35:52.579Z,6512.00
2018-04-28T09:36:52.597Z,6580.00
2018-04-28T09:37:52.618Z,6676.00
2018-04-28T09:38:52.650Z,6704.00
2018-04-28T09:39:52.687Z,6632.00
2018-04-28T09:40:52.696Z,6700.00
2018-04-28T09:41:52.717Z,6676.00
2018-04-28T09:42:52.747Z,6644.00
2018-04-28T09:43:52.769Z,6552.00
2018-04-28T09:44:52.793Z,6596.00
2018-04-28T09:45:52.816Z,6580.00
2018-04-28T09:46:52.844Z,6556.00
2018-04-28T09:47:52.874Z,6728.00
2018-04-28T09:48:52.893Z,6652.00
2018-04-28T09:49:52.924Z,6532.00
2018-04-28T09:50:52.943Z,6504.00
2018-04-28T09:51:52.967Z,6472.00
2018-04-28T09:52:52.998Z,6528.00
2018-04-28T09:53:53.019Z,6584.00
2018-04-28T09:54:53.044Z,6596.00
2018-04-28T09:55:53.067Z,6288.00
2018-04-28T09:56:53.092Z,5996.00
2018-04-28T09:57:53.119Z,5932.00
2018-04-28T09:58:53.183Z,6116.00
2018-04-28T09:59:53.217Z,6344.00
2018-04-28T10:00:53.189Z,6484.00
2018-04-28T10:01:53.219Z,6580.00
2018-04-28T10:02:53.240Z,6568.00
2018-04-28T10:03:53.266Z,6400.00
2018-04-28T10:04:53.290Z,6412.00
2018-04-28T10:05:53.377Z,6320.00
2018-04-28T10:06:53.349Z,6212.00
2018-04-28T10:07:53.368Z,6164.00
2018-04-28T10:08:53.397Z,6124.00
2018-04-28T10:09:53.416Z,5956.00
2018-04-28T10:10:53.441Z,6028.00
2018-04-28T10:11:53.464Z,6020.00
2018-04-28T10:12:53.498Z,6384.00
2018-04-28T10:13:53.518Z,6516.00
2018-04-28T10:14:53.542Z,6680.00
2018-04-28T10:15:53.564Z,6896.00
2018-04-28T10:16:53.591Z,7124.00
2018-04-28T10:17:53.616Z,7184.00
2018-04-28T10:18:53.642Z,7168.00
2018-04-28T10:19:53.666Z,7192.00
2018-04-28T10:20:53.695Z,7272.00
2018-04-28T10:21:53.718Z,7100.00
2018-04-28T10:22:53.743Z,6896.00
2018-04-28T10:23:53.768Z,6728.00
2018-04-28T10:24:53.798Z,6856.00
2018-04-28T10:25:53.821Z,6772.00
2018-04-28T10:26:53.841Z,6792.00
2018-04-28T10:27:53.864Z,6968.00
2018-04-28T10:28:53.891Z,7064.00
2018-04-28T10:29:53.921Z,7156.00
2018-04-28T10:30:54.041Z,7108.00
2018-04-28T10:31:53.970Z,7164.00
2018-04-28T10:32:53.992Z,7268.00
2018-04-28T10:33:54.017Z,7048.00
2018-04-28T10:34:54.042Z,6956.00
2018-04-28T10:35:54.073Z,6764.00
2018-04-28T10:36:54.093Z,6632.00
2018-04-28T10:37:54.121Z,6524.00
2018-04-28T10:38:54.145Z,6544.00
2018-04-28T10:39:54.168Z,6400.00
2018-04-28T10:40:54.195Z,6400.00
2018-04-28T10:41:54.221Z,6324.00
2018-04-28T10:42:54.245Z,6408.00
2018-04-28T10:43:54.272Z,6312.00
2018-04-28T10:44:54.298Z,6380.00
2018-04-28T10:45:54.328Z,6544.00
2018-04-28T10:46:54.350Z,6592.00
2018-04-28T10:47:54.376Z,6680.00
2018-04-28T10:48:54.403Z,6696.00
2018-04-28T10:49:54.429Z,6500.00
2018-04-28T10:50:54.449Z,7124.00
2018-04-28T10:51:54.474Z,7608.00
2018-04-28T10:52:54.500Z,7544.00
2018-04-28T10:53:54.633Z,6848.00
2018-04-28T10:54:54.554Z,6324.00
2018-04-28T10:55:54.575Z,5884.00
2018-04-28T10:56:54.604Z,5456.00
2018-04-28T10:57:54.632Z,5208.00
2018-04-28T10:58:54.661Z,5340.00
2018-04-28T10:59:54.680Z,5256.00
2018-04-28T11:00:54.709Z,5268.00
2018-04-28T11:01:54.729Z,5496.00
2018-04-28T11:02:54.755Z,6408.00
2018-04-28T11:03:54.784Z,5904.00
2018-04-28T11:04:54.810Z,6240.00
2018-04-28T11:05:54.832Z,6516.00
2018-04-28T11:06:54.856Z,6480.00
2018-04-28T11:07:54.886Z,7096.00
2018-04-28T11:08:54.907Z,6480.00
2018-04-28T11:09:54.935Z,6152.00
2018-04-28T11:10:54.959Z,5976.00
2018-04-28T11:11:54.993Z,6968.00
2018-04-28T11:12:55.012Z,6476.00
2018-04-28T11:13:55.055Z,5952.00
2018-04-28T11:14:55.061Z,5420.00
2018-04-28T11:15:55.092Z,6852.00
2018-04-28T11:16:55.114Z,5108.00
2018-04-28T11:17:55.139Z,4720.00
2018-04-28T11:18:55.167Z,4336.00
2018-04-28T11:19:55.207Z,4252.00
2018-04-28T11:20:55.212Z,4580.00
2018-04-28T11:21:55.241Z,4804.00
2018-04-28T11:22:55.268Z,5052.00
2018-04-28T11:23:55.293Z,5308.00
2018-04-28T11:24:55.316Z,5212.00
2018-04-28T11:25:55.378Z,5480.00
2018-04-28T11:26:55.369Z,5612.00
2018-04-28T11:27:55.400Z,5792.00
2018-04-28T11:28:55.419Z,5888.00
2018-04-28T11:29:55.445Z,5836.00
2018-04-28T11:30:55.470Z,5636.00
2018-04-28T11:31:55.495Z,5636.00
2018-04-28T11:32:55.539Z,5792.00
2018-04-28T11:33:55.544Z,6032.00
2018-04-28T11:34:55.571Z,6200.00
2018-04-28T11:35:55.598Z,7632.00
2018-04-28T11:36:55.623Z,7740.00
2018-04-28T11:37:55.647Z,7424.00
2018-04-28T11:38:55.672Z,6720.00
2018-04-28T11:39:55.701Z,5172.00
2018-04-28T11:40:55.722Z,4620.00
2018-04-28T11:41:55.746Z,4460.00
2018-04-28T11:42:55.781Z,4668.00
2018-04-28T11:43:55.799Z,4904.00
2018-04-28T11:44:55.825Z,5136.00
2018-04-28T11:45:55.850Z,5504.00
2018-04-28T11:46:55.877Z,7664.00
2018-04-28T11:47:55.897Z,7928.00
2018-04-28T11:48:55.928Z,8092.00
2018-04-28T11:49:55.966Z,6152.00
2018-04-28T11:50:56.001Z,6648.00
2018-04-28T11:51:56.013Z,5656.00
2018-04-28T11:52:56.035Z,5168.00
2018-04-28T11:53:56.059Z,4664.00
2018-04-28T11:54:56.085Z,4484.00
2018-04-28T11:55:56.107Z,4672.00
2018-04-28T11:56:56.131Z,4976.00
2018-04-28T11:57:56.159Z,4928.00
2018-04-28T11:58:56.226Z,4860.00
2018-04-28T11:59:56.213Z,4672.00
2018-04-28T12:00:56.241Z,4516.00
2018-04-28T12:01:56.278Z,4640.00
2018-04-28T12:02:56.303Z,4924.00
2018-04-28T12:03:56.310Z,5192.00
2018-04-28T12:04:56.345Z,5376.00
2018-04-28T12:05:56.367Z,5360.00
2018-04-28T12:06:56.392Z,5500.00
2018-04-28T12:07:56.421Z,5312.00
2018-04-28T12:08:56.443Z,5236.00
2018-04-28T12:09:56.493Z,5012.00
2018-04-28T12:10:56.493Z,4768.00
2018-04-28T12:11:56.523Z,4684.00
2018-04-28T12:12:56.620Z,4780.00
2018-04-28T12:13:56.580Z,4696.00
2018-04-28T12:14:56.594Z,4480.00
2018-04-28T12:15:56.627Z,4212.00
2018-04-28T12:16:56.651Z,3740.00
2018-04-28T12:17:56.674Z,3188.00
2018-04-28T12:18:56.708Z,2864.00
2018-04-28T12:19:56.726Z,2260.00
2018-04-28T12:20:56.791Z,1964.00
2018-04-28T12:21:56.771Z,1840.00
2018-04-28T12:22:56.802Z,1740.00
2018-04-28T12:23:56.825Z,1848.00
2018-04-28T12:24:56.848Z,2168.00
2018-04-28T12:25:56.872Z,2256.00
2018-04-28T12:26:56.898Z,2452.00
2018-04-28T12:27:56.921Z,2904.00
2018-04-28T12:28:56.947Z,3624.00
2018-04-28T12:29:57.019Z,4072.00
2018-04-28T12:30:57.001Z,4352.00
2018-04-28T12:31:57.021Z,4676.00
2018-04-28T12:32:57.052Z,4704.00
2018-04-28T12:33:57.070Z,4608.00
2018-04-28T12:34:57.097Z,4608.00
2018-04-28T12:35:57.207Z,4688.00
2018-04-28T12:36:57.144Z,4624.00
2018-04-28T12:37:57.165Z,4660.00
2018-04-28T12:38:57.193Z,4584.00
2018-04-28T12:39:57.220Z,4700.00
2018-04-28T12:40:57.243Z,4948.00
2018-04-28T12:41:57.268Z,5572.00
2018-04-28T12:42:57.291Z,4980.00
2018-04-28T12:43:57.318Z,5024.00
2018-04-28T12:44:57.370Z,5020.00
2018-04-28T12:45:57.366Z,5100.00
2018-04-28T12:46:57.402Z,4980.00
2018-04-28T12:47:57.420Z,4752.00
2018-04-28T12:48:57.442Z,4532.00
2018-04-28T12:49:57.466Z,4452.00
2018-04-28T12:50:57.492Z,4364.00
2018-04-28T12:51:57.514Z,4428.00
2018-04-28T12:52:57.557Z,4548.00
2018-04-28T12:53:57.566Z,4536.00
2018-04-28T12:54:57.593Z,4460.00
2018-04-28T12:55:57.616Z,4460.00
2018-04-28T12:56:57.637Z,4448.00
2018-04-28T12:57:57.670Z,4512.00
2018-04-28T12:58:57.695Z,4576.00
2018-04-28T12:59:57.711Z,4480.00
2018-04-28T13:00:57.738Z,4664.00
2018-04-28T13:01:57.764Z,4796.00
2018-04-28T13:02:57.792Z,5112.00
2018-04-28T13:03:57.824Z,5276.00
2018-04-28T13:04:57.841Z,5384.00
2018-04-28T13:05:57.879Z,5156.00
2018-04-28T13:06:57.889Z,5288.00
2018-04-28T13:07:57.915Z,5312.00
2018-04-28T13:08:57.944Z,4896.00
2018-04-28T13:09:57.961Z,4456.00
2018-04-28T13:10:58.013Z,3868.00
2018-04-28T13:11:58.011Z,3604.00
2018-04-28T13:12:58.035Z,3608.00
2018-04-28T13:13:58.062Z,3812.00
2018-04-28T13:14:58.088Z,4176.00
2018-04-28T13:15:58.111Z,4460.00
2018-04-28T13:16:58.147Z,4912.00
2018-04-28T13:17:58.159Z,4928.00
2018-04-28T13:18:58.187Z,5140.00
2018-04-28T13:19:58.223Z,5148.00
2018-04-28T13:20:58.233Z,5536.00
2018-04-28T13:21:58.263Z,5360.00
2018-04-28T13:22:58.283Z,5516.00
2018-04-28T13:23:58.307Z,5512.00
2018-04-28T13:24:58.334Z,5304.00
2018-04-28T13:25:58.360Z,5320.00
2018-04-28T13:26:58.454Z,5288.00
2018-04-28T13:27:58.411Z,5600.00
2018-04-28T13:28:58.452Z,5640.00
2018-04-28T13:29:58.464Z,5548.00
2018-04-28T13:30:58.496Z,5580.00
2018-04-28T13:31:58.515Z,5596.00
2018-04-28T13:32:58.532Z,5492.00
2018-04-28T13:33:58.557Z,5392.00
2018-04-28T13:34:58.582Z,5068.00
2018-04-28T13:35:58.608Z,5000.00
2018-04-28T13:36:58.633Z,5112.00
2018-04-28T13:37:58.661Z,5048.00
2018-04-28T13:38:58.685Z,4820.00
2018-04-28T13:39:58.713Z,5220.00
2018-04-28T13:40:58.758Z,4484.00
2018-04-28T13:41:58.760Z,4432.00
2018-04-28T13:42:58.844Z,4512.00
2018-04-28T13:43:58.818Z,4484.00
2018-04-28T13:44:58.835Z,4508.00
2018-04-28T13:45:58.864Z,4600.00
2018-04-28T13:46:58.890Z,4792.00
2018-04-28T13:47:58.917Z,4872.00
2018-04-28T13:48:58.939Z,4852.00
2018-04-28T13:49:58.960Z,4704.00
2018-04-28T13:50:58.989Z,4632.00
2018-04-28T13:51:59.011Z,4596.00
2018-04-28T13:52:59.037Z,4360.00
2018-04-28T13:53:59.065Z,3964.00
2018-04-28T13:54:59.088Z,3512.00
2018-04-28T13:55:59.124Z,3264.00
2018-04-28T13:56:59.140Z,3228.00
2018-04-28T13:57:59.170Z,3388.00
2018-04-28T13:58:59.188Z,3632.00
2018-04-28T13:59:59.212Z,3760.00
2018-04-28T14:00:59.239Z,3868.00
2018-04-28T14:01:59.264Z,3984.00
2018-04-28T14:02:59.289Z,4020.00
2018-04-28T14:03:59.313Z,4156.00
2018-04-28T14:04:59.342Z,4008.00
2018-04-28T14:05:59.366Z,4200.00
2018-04-28T14:06:59.457Z,4284.00
2018-04-28T14:07:59.413Z,4332.00
2018-04-28T14:08:59.437Z,4620.00
2018-04-28T14:09:59.466Z,4600.00
2018-04-28T14:10:59.488Z,4400.00
2018-04-28T14:11:59.516Z,4220.00
2018-04-28T14:12:59.539Z,4200.00
2018-04-28T14:13:59.565Z,4232.00
2018-04-28T14:14:59.584Z,4204.00
2018-04-28T14:15:59.609Z,4264.00
2018-04-28T14:16:59.641Z,4384.00
2018-04-28T14:17:59.659Z,4300.00
2018-04-28T14:18:59.682Z,4196.00
2018-04-28T14:19:59.719Z,4200.00
2018-04-28T14:20:59.810Z,4248.00
2018-04-28T14:21:59.764Z,4488.00
2018-04-28T14:22:59.786Z,4612.00
2018-04-28T14:23:59.807Z,4604.00
2018-04-28T14:24:59.836Z,4480.00
2018-04-28T14:25:59.856Z,4376.00
2018-04-28T14:26:59.902Z,4612.00
2018-04-28T14:27:59.908Z,4924.00
2018-04-28T14:28:59.932Z,5328.00
2018-04-28T14:29:59.956Z,5280.00
2018-04-28T14:30:59.982Z,5036.00
2018-04-28T14:32:00.003Z,4400.00
2018-04-28T14:33:00.028Z,3792.00
2018-04-28T14:34:00.057Z,3588.00
2018-04-28T14:35:00.082Z,3356.00
2018-04-28T14:36:00.104Z,3376.00
2018-04-28T14:37:00.135Z,3420.00
2018-04-28T14:38:00.157Z,3468.00
2018-04-28T14:39:00.180Z,3576.00
2018-04-28T14:40:00.208Z,3648.00
2018-04-28T14:41:00.236Z,3676.00
2018-04-28T14:42:00.252Z,3612.00
2018-04-28T14:43:00.278Z,3436.00
2018-04-28T14:44:00.302Z,3064.00
2018-04-28T14:45:00.328Z,2708.00
2018-04-28T14:46:00.354Z,2488.00
2018-04-28T14:47:00.376Z,2296.00
2018-04-28T14:48:00.400Z,2204.00
2018-04-28T14:49:00.421Z,2232.00
2018-04-28T14:50:00.448Z,2352.00
2018-04-28T14:51:00.479Z,2452.00
2018-04-28T14:52:00.498Z,2428.00
2018-04-28T14:53:00.525Z,2404.00
2018-04-28T14:54:00.555Z,2340.00
2018-04-28T14:55:00.575Z,2248.00
2018-04-28T14:56:00.604Z,2148.00
2018-04-28T14:57:00.637Z,2120.00
2018-04-28T14:58:00.643Z,2220.00
2018-04-28T14:59:00.666Z,2420.00
2018-04-28T15:00:00.692Z,2728.00
2018-04-28T15:01:00.724Z,3020.00
2018-04-28T15:02:00.742Z,3356.00
2018-04-28T15:03:00.767Z,3640.00
2018-04-28T15:04:00.792Z,4028.00
2018-04-28T15:05:00.814Z,4432.00
2018-04-28T15:06:00.843Z,4752.00
2018-04-28T15:07:00.863Z,4880.00
2018-04-28T15:08:00.887Z,4784.00
2018-04-28T15:09:00.910Z,4500.00
2018-04-28T15:10:00.934Z,4188.00
2018-04-28T15:11:00.957Z,3840.00
2018-04-28T15:12:00.989Z,3468.00
2018-04-28T15:13:01.023Z,3128.00
2018-04-28T15:14:01.036Z,2868.00
2018-04-28T15:15:01.058Z,2900.00
2018-04-28T15:16:01.082Z,3060.00
2018-04-28T15:17:01.110Z,2916.00
2018-04-28T15:18:01.126Z,3160.00
2018-04-28T15:19:01.156Z,3280.00
2018-04-28T15:20:01.177Z,3228.00
2018-04-28T15:21:01.197Z,3248.00
2018-04-28T15:22:01.223Z,3296.00
2018-04-28T15:23:01.251Z,3364.00
2018-04-28T15:24:01.275Z,3412.00
2018-04-28T15:25:01.299Z,3436.00
2018-04-28T15:26:01.319Z,3428.00
2018-04-28T15:27:01.351Z,3432.00
2018-04-28T15:28:01.371Z,3456.00
2018-04-28T15:29:01.393Z,3460.00
2018-04-28T15:30:01.421Z,3312.00
2018-04-28T15:31:01.444Z,3124.00
2018-04-28T15:32:01.467Z,2956.00
2018-04-28T15:33:01.495Z,2828.00
2018-04-28T15:34:01.519Z,2748.00
2018-04-28T15:35:01.542Z,2724.00
2018-04-28T15:36:01.564Z,2704.00
2018-04-28T15:37:01.588Z,2676.00
2018-04-28T15:38:01.612Z,2668.00
2018-04-28T15:39:01.642Z,2684.00
2018-04-28T15:40:01.659Z,2668.00
2018-04-28T15:41:01.685Z,2684.00
2018-04-28T15:42:01.713Z,2680.00
2018-04-28T15:43:01.739Z,2696.00
2018-04-28T15:44:01.757Z,2692.00
2018-04-28T15:45:01.781Z,2640.00